createdAt,value
2017-10-09T00:00:07.191Z,0
2017-10-09T00:00:47.721Z,0
2017-10-09T00:01:28.257Z,0
2017-10-09T00:02:08.795Z,0
2017-10-09T00:02:49.328Z,0
2017-10-09T00:03:29.863Z,0
2017-10-09T00:04:10.394Z,0
2017-10-09T00:04:50.925Z,0
2017-10-09T00:05:31.461Z,0
2017-10-09T00:06:12.025Z,0
2017-10-09T00:06:52.531Z,0
2017-10-09T00:07:33.068Z,0
2017-10-09T00:08:13.604Z,0
2017-10-09T00:08:54.136Z,0
2017-10-09T00:09:34.672Z,0
2017-10-09T00:10:15.206Z,0
2017-10-09T00:10:55.814Z,0
2017-10-09T00:11:36.337Z,0
2017-10-09T00:12:16.868Z,0
2017-10-09T00:12:57.403Z,0
2017-10-09T00:13:37.940Z,0
2017-10-09T00:14:18.471Z,0
2017-10-09T00:14:59.000Z,0
2017-10-09T00:15:39.528Z,0
2017-10-09T00:16:20.059Z,0
2017-10-09T00:17:00.595Z,0
2017-10-09T00:17:41.129Z,0
2017-10-09T00:18:21.662Z,0
2017-10-09T00:19:02.194Z,0
2017-10-09T00:19:42.727Z,0
2017-10-09T00:20:23.251Z,0
2017-10-09T00:21:03.778Z,0
2017-10-09T00:21:44.329Z,0
2017-10-09T00:22:24.860Z,0
2017-10-09T00:23:05.389Z,0
2017-10-09T00:23:45.924Z,0
2017-10-09T00:24:26.454Z,0
2017-10-09T00:25:06.985Z,0
2017-10-09T00:25:47.529Z,0
2017-10-09T00:26:28.051Z,0
2017-10-09T00:27:08.588Z,0
2017-10-09T00:27:49.112Z,0
2017-10-09T00:28:29.649Z,0
2017-10-09T00:29:10.183Z,0
2017-10-09T00:29:50.714Z,0
2017-10-09T00:30:31.248Z,0
2017-10-09T00:31:11.780Z,0
2017-10-09T00:31:52.312Z,0
2017-10-09T00:32:32.846Z,0
2017-10-09T00:33:13.379Z,0
2017-10-09T00:33:53.913Z,0
2017-10-09T00:34:34.441Z,0
2017-10-09T00:35:14.973Z,0
2017-10-09T00:35:55.508Z,0
2017-10-09T00:36:36.037Z,0
2017-10-09T00:37:16.575Z,0
2017-10-09T00:37:57.108Z,0
2017-10-09T00:38:37.647Z,0
2017-10-09T00:39:18.178Z,0
2017-10-09T00:39:58.711Z,0
2017-10-09T00:40:39.251Z,0
2017-10-09T00:41:19.791Z,0
2017-10-09T00:42:00.313Z,0
2017-10-09T00:42:40.850Z,0
2017-10-09T00:43:21.376Z,0
2017-10-09T00:44:01.911Z,0
2017-10-09T00:44:42.444Z,0
2017-10-09T00:45:22.978Z,0
2017-10-09T00:46:03.515Z,0
2017-10-09T00:46:44.043Z,0
2017-10-09T00:47:24.578Z,0
2017-10-09T00:48:05.110Z,0
2017-10-09T00:48:45.646Z,0
2017-10-09T00:49:26.175Z,0
2017-10-09T00:50:06.709Z,0
2017-10-09T00:50:47.243Z,0
2017-10-09T00:51:27.776Z,0
2017-10-09T00:52:08.316Z,0
2017-10-09T00:52:48.849Z,0
2017-10-09T00:53:29.371Z,0
2017-10-09T00:54:09.897Z,0
2017-10-09T00:54:50.437Z,0
2017-10-09T00:55:30.979Z,0
2017-10-09T00:56:11.515Z,0
2017-10-09T00:56:52.026Z,0
2017-10-09T00:57:32.560Z,0
2017-10-09T00:58:13.091Z,0
2017-10-09T00:58:53.625Z,0
2017-10-09T00:59:34.164Z,0
2017-10-09T01:00:14.705Z,0
2017-10-09T01:00:55.234Z,0
2017-10-09T01:01:35.768Z,0
2017-10-09T01:02:16.302Z,0
2017-10-09T01:02:56.833Z,0
2017-10-09T01:03:37.375Z,0
2017-10-09T01:04:17.911Z,0
2017-10-09T01:04:58.443Z,0
2017-10-09T01:05:38.977Z,0
2017-10-09T01:06:19.510Z,0
2017-10-09T01:07:00.042Z,0
2017-10-09T01:07:40.575Z,0
2017-10-09T01:08:21.120Z,0
2017-10-09T01:09:01.639Z,0
2017-10-09T01:09:42.172Z,0
2017-10-09T01:10:22.703Z,0
2017-10-09T01:11:03.235Z,0
2017-10-09T01:11:43.771Z,0
2017-10-09T01:12:24.346Z,0
2017-10-09T01:13:04.880Z,0
2017-10-09T01:13:45.415Z,0
2017-10-09T01:14:25.950Z,0
2017-10-09T01:15:06.484Z,0
2017-10-09T01:15:47.015Z,0
2017-10-09T01:16:27.549Z,0
2017-10-09T01:17:08.085Z,0
2017-10-09T01:17:48.620Z,0
2017-10-09T01:18:29.150Z,0
2017-10-09T01:19:09.678Z,0
2017-10-09T01:19:50.219Z,0
2017-10-09T01:20:30.741Z,0
2017-10-09T01:21:11.277Z,0
2017-10-09T01:21:51.820Z,0
2017-10-09T01:22:32.349Z,0
2017-10-09T01:23:12.877Z,0
2017-10-09T01:23:53.407Z,0
2017-10-09T01:24:33.941Z,0
2017-10-09T01:25:14.473Z,0
2017-10-09T01:25:55.011Z,0
2017-10-09T01:26:35.627Z,0
2017-10-09T01:27:16.106Z,0
2017-10-09T01:27:56.636Z,0
2017-10-09T01:28:37.171Z,0
2017-10-09T01:29:17.709Z,0
2017-10-09T01:29:58.230Z,0
2017-10-09T01:30:38.770Z,0
2017-10-09T01:31:19.305Z,0
2017-10-09T01:31:59.870Z,0
2017-10-09T01:32:40.376Z,0
2017-10-09T01:33:20.913Z,0
2017-10-09T01:34:01.445Z,0
2017-10-09T01:34:41.980Z,0
2017-10-09T01:35:22.514Z,0
2017-10-09T01:36:03.045Z,0
2017-10-09T01:36:43.579Z,0
2017-10-09T01:37:24.117Z,0
2017-10-09T01:38:04.651Z,0
2017-10-09T01:38:45.185Z,0
2017-10-09T01:39:25.721Z,0
2017-10-09T01:40:06.252Z,0
2017-10-09T01:40:46.791Z,0
2017-10-09T01:41:27.313Z,0
2017-10-09T01:42:07.858Z,0
2017-10-09T01:42:48.397Z,0
2017-10-09T01:43:28.930Z,0
2017-10-09T01:44:09.451Z,0
2017-10-09T01:44:49.987Z,0
2017-10-09T01:45:30.520Z,0
2017-10-09T01:46:11.050Z,0
2017-10-09T01:46:51.583Z,0
2017-10-09T01:47:32.110Z,0
2017-10-09T01:48:12.643Z,0
2017-10-09T01:48:53.179Z,0
2017-10-09T01:49:33.751Z,0
2017-10-09T01:50:14.273Z,0
2017-10-09T01:50:54.816Z,0
2017-10-09T01:51:35.355Z,0
2017-10-09T01:52:15.894Z,0
2017-10-09T01:52:56.426Z,0
2017-10-09T01:53:36.955Z,0
2017-10-09T01:54:17.489Z,0
2017-10-09T01:54:58.022Z,0
2017-10-09T01:55:38.557Z,0
2017-10-09T01:56:19.101Z,0
2017-10-09T01:56:59.648Z,0
2017-10-09T01:57:40.180Z,0
2017-10-09T01:58:20.710Z,0
2017-10-09T01:59:01.242Z,0
2017-10-09T01:59:41.773Z,0
2017-10-09T02:00:22.311Z,0
2017-10-09T02:01:02.843Z,0
2017-10-09T02:01:43.372Z,0
2017-10-09T02:02:23.908Z,0
2017-10-09T02:03:04.434Z,0
2017-10-09T02:03:44.986Z,0
2017-10-09T02:04:25.516Z,0
2017-10-09T02:05:06.061Z,0
2017-10-09T02:05:46.588Z,0
2017-10-09T02:06:27.112Z,0
2017-10-09T02:07:07.647Z,0
2017-10-09T02:07:48.179Z,0
2017-10-09T02:08:28.714Z,0
2017-10-09T02:09:09.258Z,0
2017-10-09T02:09:49.792Z,0
2017-10-09T02:10:30.325Z,0
2017-10-09T02:11:10.859Z,0
2017-10-09T02:11:51.394Z,0
2017-10-09T02:12:31.925Z,0
2017-10-09T02:13:12.460Z,0
2017-10-09T02:13:52.993Z,0
2017-10-09T02:14:33.545Z,0
2017-10-09T02:15:14.079Z,0
2017-10-09T02:15:54.612Z,0
2017-10-09T02:16:35.148Z,0
2017-10-09T02:17:15.680Z,0
2017-10-09T02:17:56.214Z,0
2017-10-09T02:18:36.748Z,0
2017-10-09T02:19:17.278Z,0
2017-10-09T02:19:57.813Z,0
2017-10-09T02:20:38.349Z,0
2017-10-09T02:21:18.884Z,0
2017-10-09T02:21:59.420Z,0
2017-10-09T02:22:39.963Z,0
2017-10-09T02:23:20.499Z,0
2017-10-09T02:24:01.030Z,0
2017-10-09T02:24:41.566Z,0
2017-10-09T02:25:22.105Z,0
2017-10-09T02:26:02.639Z,0
2017-10-09T02:26:43.175Z,0
2017-10-09T02:27:23.697Z,0
2017-10-09T02:28:04.230Z,0
2017-10-09T02:28:44.762Z,0
2017-10-09T02:29:25.295Z,0
2017-10-09T02:30:05.842Z,0
2017-10-09T02:30:46.374Z,0
2017-10-09T02:31:26.906Z,0
2017-10-09T02:32:07.436Z,0
2017-10-09T02:32:47.971Z,0
2017-10-09T02:33:28.497Z,0
2017-10-09T02:34:09.041Z,0
2017-10-09T02:34:49.589Z,0
2017-10-09T02:35:30.130Z,0
2017-10-09T02:36:10.658Z,0
2017-10-09T02:36:51.185Z,0
2017-10-09T02:37:31.718Z,0
2017-10-09T02:38:12.253Z,0
2017-10-09T02:38:52.790Z,0
2017-10-09T02:39:33.324Z,0
2017-10-09T02:40:13.853Z,0
2017-10-09T02:40:54.387Z,0
2017-10-09T02:41:34.922Z,0
2017-10-09T02:42:15.456Z,0
2017-10-09T02:42:55.990Z,0
2017-10-09T02:43:36.514Z,0
2017-10-09T02:44:17.047Z,0
2017-10-09T02:44:57.577Z,0
2017-10-09T02:45:38.119Z,0
2017-10-09T02:46:18.655Z,0
2017-10-09T02:46:59.190Z,0
2017-10-09T02:47:39.717Z,0
2017-10-09T02:48:20.255Z,0
2017-10-09T02:49:00.789Z,0
2017-10-09T02:49:41.326Z,0
2017-10-09T02:50:21.861Z,0
2017-10-09T02:51:02.406Z,0
2017-10-09T02:51:42.942Z,0
2017-10-09T02:52:23.491Z,0
2017-10-09T02:53:04.020Z,0
2017-10-09T02:53:44.556Z,0
2017-10-09T02:54:25.084Z,0
2017-10-09T02:55:05.619Z,0
2017-10-09T02:55:46.158Z,0
2017-10-09T02:56:26.684Z,0
2017-10-09T02:57:07.210Z,0
2017-10-09T02:57:47.726Z,0
2017-10-09T02:58:28.279Z,0
2017-10-09T02:59:08.813Z,0
2017-10-09T02:59:49.346Z,0
2017-10-09T03:00:29.877Z,0
2017-10-09T03:01:10.407Z,0
2017-10-09T03:01:50.940Z,0
2017-10-09T03:02:31.464Z,0
2017-10-09T03:03:11.999Z,0
2017-10-09T03:03:52.536Z,0
2017-10-09T03:04:33.067Z,0
2017-10-09T03:05:13.602Z,0
2017-10-09T03:05:54.128Z,0
2017-10-09T03:06:34.673Z,0
2017-10-09T03:07:15.211Z,0
2017-10-09T03:07:55.742Z,0
2017-10-09T03:08:36.273Z,0
2017-10-09T03:09:16.808Z,0
2017-10-09T03:09:57.333Z,0
2017-10-09T03:10:37.957Z,0
2017-10-09T03:11:18.489Z,0
2017-10-09T03:11:59.026Z,0
2017-10-09T03:12:39.566Z,0
2017-10-09T03:13:20.099Z,0
2017-10-09T03:14:00.636Z,0
2017-10-09T03:14:41.168Z,0
2017-10-09T03:15:21.708Z,0
2017-10-09T03:16:02.240Z,0
2017-10-09T03:16:42.775Z,0
2017-10-09T03:17:23.325Z,0
2017-10-09T03:18:03.844Z,0
2017-10-09T03:18:44.382Z,0
2017-10-09T03:19:24.913Z,0
2017-10-09T03:20:05.445Z,0
2017-10-09T03:20:45.971Z,0
2017-10-09T03:21:26.503Z,0
2017-10-09T03:22:07.038Z,0
2017-10-09T03:22:47.580Z,0
2017-10-09T03:23:28.118Z,0
2017-10-09T03:24:08.637Z,0
2017-10-09T03:24:49.180Z,0
2017-10-09T03:25:29.710Z,0
2017-10-09T03:26:10.240Z,0
2017-10-09T03:26:50.778Z,0
2017-10-09T03:27:31.320Z,0
2017-10-09T03:28:11.847Z,0
2017-10-09T03:28:52.387Z,0
2017-10-09T03:29:32.918Z,0
2017-10-09T03:30:13.453Z,0
2017-10-09T03:30:53.984Z,0
2017-10-09T03:31:34.521Z,0
2017-10-09T03:32:15.058Z,0
2017-10-09T03:32:55.613Z,0
2017-10-09T03:33:36.112Z,0
2017-10-09T03:34:16.645Z,0
2017-10-09T03:34:57.185Z,0
2017-10-09T03:35:37.704Z,0
2017-10-09T03:36:18.239Z,0
2017-10-09T03:36:58.773Z,0
2017-10-09T03:37:39.305Z,0
2017-10-09T03:38:19.836Z,0
2017-10-09T03:39:00.423Z,0
2017-10-09T03:39:40.961Z,0
2017-10-09T03:40:21.498Z,0
2017-10-09T03:41:02.051Z,0
2017-10-09T03:41:42.620Z,0
2017-10-09T03:42:23.152Z,0
2017-10-09T03:43:03.698Z,0
2017-10-09T03:43:44.240Z,0
2017-10-09T03:44:24.789Z,0
2017-10-09T03:45:05.306Z,0
2017-10-09T03:45:45.841Z,0
2017-10-09T03:46:26.379Z,0
2017-10-09T03:47:06.921Z,0
2017-10-09T03:47:47.455Z,0
2017-10-09T03:48:27.992Z,0
2017-10-09T03:49:08.539Z,0
2017-10-09T03:49:49.096Z,0
2017-10-09T03:50:29.619Z,0
2017-10-09T03:51:10.156Z,0
2017-10-09T03:51:50.688Z,0
2017-10-09T03:52:31.991Z,0
2017-10-09T03:53:14.459Z,0
2017-10-09T03:53:56.879Z,0
2017-10-09T03:54:37.399Z,0
2017-10-09T03:55:17.934Z,0
2017-10-09T03:55:58.459Z,0
2017-10-09T03:56:39.010Z,0
2017-10-09T03:57:19.553Z,0
2017-10-09T03:58:00.087Z,0
2017-10-09T03:58:40.620Z,0
2017-10-09T03:59:21.153Z,0
2017-10-09T04:00:01.685Z,0
2017-10-09T04:00:42.222Z,0
2017-10-09T04:01:22.758Z,0
2017-10-09T04:02:03.275Z,0
2017-10-09T04:02:43.812Z,0
2017-10-09T04:03:24.345Z,0
2017-10-09T04:04:04.885Z,0
2017-10-09T04:04:45.417Z,0
2017-10-09T04:05:25.952Z,0
2017-10-09T04:06:06.482Z,0
2017-10-09T04:06:47.075Z,0
2017-10-09T04:07:27.613Z,0
2017-10-09T04:08:08.144Z,0
2017-10-09T04:08:48.665Z,0
2017-10-09T04:09:29.210Z,0
2017-10-09T04:10:09.750Z,0
2017-10-09T04:10:50.293Z,0
2017-10-09T04:11:30.816Z,0
2017-10-09T04:12:11.338Z,0
2017-10-09T04:12:51.867Z,0
2017-10-09T04:13:32.398Z,0
2017-10-09T04:14:12.980Z,0
2017-10-09T04:14:53.468Z,0
2017-10-09T04:15:34.001Z,0
2017-10-09T04:16:14.536Z,0
2017-10-09T04:16:55.066Z,0
2017-10-09T04:17:35.590Z,0
2017-10-09T04:18:16.122Z,0
2017-10-09T04:18:56.672Z,0
2017-10-09T04:19:37.191Z,0
2017-10-09T04:20:17.774Z,0
2017-10-09T04:20:58.316Z,0
2017-10-09T04:21:38.837Z,0
2017-10-09T04:22:19.373Z,0
2017-10-09T04:22:59.906Z,0
2017-10-09T04:23:40.440Z,0
2017-10-09T04:24:20.975Z,0
2017-10-09T04:25:01.513Z,0
2017-10-09T04:25:42.033Z,0
2017-10-09T04:26:22.568Z,0
2017-10-09T04:27:03.113Z,0
2017-10-09T04:27:43.647Z,0
2017-10-09T04:28:24.186Z,0
2017-10-09T04:29:04.689Z,0
2017-10-09T04:29:45.216Z,0
2017-10-09T04:30:25.748Z,0
2017-10-09T04:31:06.289Z,0
2017-10-09T04:31:46.834Z,0
2017-10-09T04:32:27.348Z,0
2017-10-09T04:33:07.879Z,0
2017-10-09T04:33:48.413Z,0
2017-10-09T04:34:28.973Z,0
2017-10-09T04:35:09.519Z,0
2017-10-09T04:35:50.053Z,0
2017-10-09T04:36:30.625Z,0
2017-10-09T04:37:11.161Z,0
2017-10-09T04:37:51.757Z,0
2017-10-09T04:38:32.311Z,0
2017-10-09T04:39:12.847Z,0
2017-10-09T04:39:53.372Z,0
2017-10-09T04:40:33.937Z,0
2017-10-09T04:41:14.472Z,0
2017-10-09T04:41:55.022Z,0
2017-10-09T04:42:35.531Z,0
2017-10-09T04:43:16.058Z,0
2017-10-09T04:43:56.601Z,0
2017-10-09T04:44:37.132Z,0
2017-10-09T04:45:17.676Z,0
2017-10-09T04:45:58.211Z,0
2017-10-09T04:46:38.744Z,0
2017-10-09T04:47:19.267Z,0
2017-10-09T04:47:59.802Z,0
2017-10-09T04:48:40.332Z,0
2017-10-09T04:49:20.866Z,0
2017-10-09T04:50:01.397Z,0
2017-10-09T04:50:41.919Z,0
2017-10-09T04:51:22.448Z,0
2017-10-09T04:52:02.974Z,0
2017-10-09T04:52:43.517Z,0
2017-10-09T04:53:24.050Z,0
2017-10-09T04:54:04.587Z,0
2017-10-09T04:54:45.168Z,0
2017-10-09T04:55:25.723Z,0
2017-10-09T04:56:06.253Z,0
2017-10-09T04:58:45.886Z,0
2017-10-09T04:59:26.411Z,0
2017-10-09T05:00:06.941Z,0
2017-10-09T05:00:47.504Z,0
2017-10-09T05:01:28.038Z,0
2017-10-09T05:02:08.579Z,0
2017-10-09T05:02:49.104Z,0
2017-10-09T05:03:29.638Z,0
2017-10-09T05:04:10.174Z,0
2017-10-09T05:04:50.682Z,0
2017-10-09T05:05:31.213Z,0
2017-10-09T05:06:11.755Z,0
2017-10-09T05:06:52.280Z,0
2017-10-09T05:07:32.816Z,0
2017-10-09T05:08:13.345Z,0
2017-10-09T05:08:53.892Z,0
2017-10-09T05:09:34.425Z,0
2017-10-09T05:10:14.965Z,0
2017-10-09T05:10:55.506Z,0
2017-10-09T05:11:36.033Z,0
2017-10-09T05:12:16.556Z,0
2017-10-09T05:12:57.090Z,0
2017-10-09T05:13:37.633Z,0
2017-10-09T05:14:18.146Z,0
2017-10-09T05:14:58.668Z,0
2017-10-09T05:15:39.197Z,0
2017-10-09T05:16:19.747Z,0
2017-10-09T05:17:00.281Z,0
2017-10-09T05:17:40.816Z,0
2017-10-09T05:18:21.346Z,0
2017-10-09T05:19:01.868Z,0
2017-10-09T05:19:42.394Z,0
2017-10-09T05:20:22.923Z,0
2017-10-09T05:21:03.454Z,0
2017-10-09T05:21:43.980Z,0
2017-10-09T05:22:24.522Z,0
2017-10-09T05:23:05.056Z,0
2017-10-09T05:23:45.588Z,0
2017-10-09T05:24:26.141Z,0
2017-10-09T05:25:06.655Z,0
2017-10-09T05:25:47.179Z,0
2017-10-09T05:26:27.711Z,0
2017-10-09T05:27:08.238Z,0
2017-10-09T05:27:48.785Z,0
2017-10-09T05:28:29.286Z,0
2017-10-09T05:29:09.816Z,0
2017-10-09T05:29:50.342Z,0
2017-10-09T05:30:30.875Z,0
2017-10-09T05:31:11.394Z,0
2017-10-09T05:31:51.924Z,0
2017-10-09T05:32:32.444Z,0
2017-10-09T05:33:12.997Z,0
2017-10-09T05:33:53.512Z,0
2017-10-09T05:34:34.029Z,0
2017-10-09T05:35:14.544Z,0
2017-10-09T05:35:55.073Z,0
2017-10-09T05:36:35.582Z,0
2017-10-09T05:37:16.110Z,0
2017-10-09T05:37:56.638Z,0
2017-10-09T05:38:37.175Z,0
2017-10-09T05:39:17.698Z,0
2017-10-09T05:39:58.226Z,0
2017-10-09T05:40:38.739Z,0
2017-10-09T05:41:19.309Z,0
2017-10-09T05:41:59.834Z,0
2017-10-09T05:42:40.357Z,0
2017-10-09T05:43:20.880Z,0
2017-10-09T05:44:01.408Z,0
2017-10-09T05:44:41.958Z,5
2017-10-09T05:45:22.510Z,5
2017-10-09T05:46:03.047Z,5
2017-10-09T05:46:43.578Z,5
2017-10-09T05:47:24.132Z,5
2017-10-09T05:48:04.653Z,5
2017-10-09T05:48:45.159Z,5
2017-10-09T05:49:25.697Z,5
2017-10-09T05:50:06.221Z,5
2017-10-09T05:50:46.737Z,5
2017-10-09T05:51:27.276Z,5
2017-10-09T05:52:07.806Z,10
2017-10-09T05:52:48.370Z,10
2017-10-09T05:53:28.914Z,10
2017-10-09T05:54:09.439Z,10
2017-10-09T05:54:49.953Z,10
2017-10-09T05:55:30.476Z,10
2017-10-09T05:56:11.011Z,10
2017-10-09T05:56:51.544Z,10
2017-10-09T05:57:32.061Z,10
2017-10-09T05:58:12.582Z,10
2017-10-09T05:58:53.112Z,10
2017-10-09T05:59:33.649Z,10
2017-10-09T06:00:14.186Z,10
2017-10-09T06:00:54.708Z,10
2017-10-09T06:01:35.229Z,10
2017-10-09T06:02:15.772Z,10
2017-10-09T06:02:56.299Z,10
2017-10-09T06:03:36.817Z,10
2017-10-09T06:04:17.347Z,10
2017-10-09T06:04:57.884Z,10
2017-10-09T06:05:38.422Z,10
2017-10-09T06:06:18.953Z,10
2017-10-09T06:06:59.473Z,10
2017-10-09T06:07:40.004Z,10
2017-10-09T06:08:20.521Z,15
2017-10-09T06:09:01.038Z,15
2017-10-09T06:09:41.548Z,10
2017-10-09T06:10:22.076Z,10
2017-10-09T06:11:02.614Z,15
2017-10-09T06:11:43.154Z,15
2017-10-09T06:12:23.702Z,15
2017-10-09T06:13:04.237Z,20
2017-10-09T06:13:44.775Z,20
2017-10-09T06:14:25.411Z,20
2017-10-09T06:15:05.865Z,25
2017-10-09T06:15:46.406Z,25
2017-10-09T06:16:26.930Z,30
2017-10-09T06:17:07.463Z,30
2017-10-09T06:17:47.976Z,35
2017-10-09T06:18:28.518Z,35
2017-10-09T06:19:09.043Z,40
2017-10-09T06:19:49.572Z,40
2017-10-09T06:20:30.119Z,45
2017-10-09T06:21:10.640Z,45
2017-10-09T06:21:51.168Z,45
2017-10-09T06:22:31.696Z,45
2017-10-09T06:23:12.239Z,45
2017-10-09T06:23:52.768Z,45
2017-10-09T06:24:33.307Z,40
2017-10-09T06:25:13.828Z,40
2017-10-09T06:25:54.344Z,40
2017-10-09T06:26:34.882Z,35
2017-10-09T06:27:15.425Z,35
2017-10-09T06:27:55.954Z,30
2017-10-09T06:28:36.491Z,30
2017-10-09T06:29:17.011Z,30
2017-10-09T06:29:57.533Z,30
2017-10-09T06:30:38.060Z,30
2017-10-09T06:31:18.598Z,25
2017-10-09T06:31:59.125Z,25
2017-10-09T06:32:39.653Z,25
2017-10-09T06:33:20.182Z,25
2017-10-09T06:34:00.709Z,25
2017-10-09T06:34:41.256Z,25
2017-10-09T06:35:21.763Z,25
2017-10-09T06:36:02.290Z,25
2017-10-09T06:36:42.808Z,25
2017-10-09T06:37:23.350Z,25
2017-10-09T06:38:03.878Z,25
2017-10-09T06:38:44.410Z,25
2017-10-09T06:39:24.959Z,25
2017-10-09T06:40:05.505Z,25
2017-10-09T06:40:46.033Z,25
2017-10-09T06:41:26.563Z,25
2017-10-09T06:42:07.111Z,30
2017-10-09T06:42:47.753Z,30
2017-10-09T06:43:28.282Z,30
2017-10-09T06:44:08.824Z,30
2017-10-09T06:44:49.350Z,30
2017-10-09T06:45:29.881Z,35
2017-10-09T06:46:10.421Z,35
2017-10-09T06:46:50.942Z,35
2017-10-09T06:47:31.471Z,35
2017-10-09T06:48:11.986Z,40
2017-10-09T06:48:52.520Z,40
2017-10-09T06:49:33.036Z,40
2017-10-09T06:50:13.567Z,40
2017-10-09T06:50:54.104Z,45
2017-10-09T06:51:34.642Z,45
2017-10-09T06:52:15.153Z,50
2017-10-09T06:52:55.680Z,50
2017-10-09T06:53:36.243Z,55
2017-10-09T06:54:16.773Z,55
2017-10-09T06:54:57.298Z,55
2017-10-09T06:55:37.823Z,55
2017-10-09T06:56:18.354Z,55
2017-10-09T06:56:58.875Z,55
2017-10-09T06:57:39.430Z,55
2017-10-09T06:58:19.966Z,55
2017-10-09T06:59:00.476Z,55
2017-10-09T06:59:41.005Z,60
2017-10-09T07:00:21.523Z,60
2017-10-09T07:01:02.052Z,65
2017-10-09T07:01:42.582Z,65
2017-10-09T07:02:23.106Z,65
2017-10-09T07:03:03.626Z,65
2017-10-09T07:03:44.154Z,65
2017-10-09T07:04:24.678Z,65
2017-10-09T07:05:05.190Z,65
2017-10-09T07:05:45.717Z,65
2017-10-09T07:06:26.254Z,65
2017-10-09T07:07:06.783Z,70
2017-10-09T07:07:47.322Z,70
2017-10-09T07:08:27.851Z,70
2017-10-09T07:09:08.379Z,70
2017-10-09T07:09:48.910Z,70
2017-10-09T07:10:29.492Z,70
2017-10-09T07:11:10.022Z,70
2017-10-09T07:11:50.557Z,70
2017-10-09T07:12:31.085Z,75
2017-10-09T07:13:11.616Z,80
2017-10-09T07:13:52.133Z,85
2017-10-09T07:14:32.664Z,95
2017-10-09T07:15:13.190Z,100
2017-10-09T07:15:53.740Z,100
2017-10-09T07:16:34.317Z,110
2017-10-09T07:17:14.844Z,110
2017-10-09T07:17:55.391Z,115
2017-10-09T07:18:35.917Z,120
2017-10-09T07:19:16.446Z,120
2017-10-09T07:19:56.963Z,120
2017-10-09T07:20:37.499Z,120
2017-10-09T07:21:18.021Z,120
2017-10-09T07:21:58.548Z,120
2017-10-09T07:22:39.077Z,115
2017-10-09T07:23:19.614Z,115
2017-10-09T07:24:00.144Z,115
2017-10-09T07:24:40.679Z,115
2017-10-09T07:25:21.201Z,110
2017-10-09T07:26:01.734Z,100
2017-10-09T07:26:42.279Z,95
2017-10-09T07:27:22.808Z,90
2017-10-09T07:28:03.325Z,90
2017-10-09T07:28:43.856Z,90
2017-10-09T07:29:24.389Z,90
2017-10-09T07:30:04.930Z,95
2017-10-09T07:30:45.465Z,90
2017-10-09T07:31:26.013Z,90
2017-10-09T07:32:06.531Z,85
2017-10-09T07:32:47.053Z,85
2017-10-09T07:33:27.587Z,85
2017-10-09T07:34:08.116Z,75
2017-10-09T07:34:48.638Z,70
2017-10-09T07:35:29.179Z,70
2017-10-09T07:36:09.707Z,75
2017-10-09T07:36:50.239Z,75
2017-10-09T07:37:30.767Z,80
2017-10-09T07:38:11.318Z,85
2017-10-09T07:38:51.862Z,85
2017-10-09T07:39:32.389Z,85
2017-10-09T07:40:12.919Z,85
2017-10-09T07:40:53.465Z,85
2017-10-09T07:41:33.988Z,90
2017-10-09T07:42:14.514Z,90
2017-10-09T07:42:55.089Z,95
2017-10-09T07:43:35.564Z,95
2017-10-09T07:44:16.102Z,85
2017-10-09T07:44:56.638Z,80
2017-10-09T07:45:37.181Z,80
2017-10-09T07:46:17.708Z,85
2017-10-09T07:46:58.238Z,90
2017-10-09T07:47:38.762Z,85
2017-10-09T07:48:19.297Z,80
2017-10-09T07:48:59.831Z,75
2017-10-09T07:49:40.363Z,75
2017-10-09T07:50:20.898Z,80
2017-10-09T07:51:01.428Z,85
2017-10-09T07:51:41.962Z,90
2017-10-09T07:52:22.496Z,95
2017-10-09T07:53:03.032Z,100
2017-10-09T07:53:43.580Z,105
2017-10-09T07:54:24.092Z,105
2017-10-09T07:55:04.619Z,105
2017-10-09T07:55:45.156Z,105
2017-10-09T07:56:25.712Z,100
2017-10-09T07:57:06.244Z,100
2017-10-09T07:57:46.766Z,100
2017-10-09T07:58:27.304Z,100
2017-10-09T07:59:07.835Z,100
2017-10-09T07:59:48.374Z,100
2017-10-09T08:00:28.897Z,100
2017-10-09T08:01:09.423Z,100
2017-10-09T08:01:49.957Z,95
2017-10-09T08:02:30.488Z,90
2017-10-09T08:03:11.015Z,85
2017-10-09T08:03:51.568Z,80
2017-10-09T08:04:32.104Z,80
2017-10-09T08:05:12.639Z,75
2017-10-09T08:05:53.173Z,70
2017-10-09T08:06:33.739Z,65
2017-10-09T08:07:14.251Z,60
2017-10-09T08:07:54.781Z,60
2017-10-09T08:08:35.315Z,60
2017-10-09T08:09:15.848Z,60
2017-10-09T08:09:56.377Z,65
2017-10-09T08:10:36.904Z,70
2017-10-09T08:11:17.435Z,70
2017-10-09T08:11:57.957Z,70
2017-10-09T08:12:38.511Z,70
2017-10-09T08:13:19.080Z,65
2017-10-09T08:13:59.578Z,65
2017-10-09T08:14:40.108Z,65
2017-10-09T08:15:20.636Z,70
2017-10-09T08:16:01.171Z,70
2017-10-09T08:16:41.715Z,80
2017-10-09T08:17:22.233Z,85
2017-10-09T08:18:02.765Z,85
2017-10-09T08:18:43.282Z,90
2017-10-09T08:19:23.815Z,90
2017-10-09T08:20:04.349Z,95
2017-10-09T08:20:44.920Z,95
2017-10-09T08:21:25.470Z,105
2017-10-09T08:22:05.986Z,110
2017-10-09T08:22:46.524Z,125
2017-10-09T08:23:27.041Z,140
2017-10-09T08:24:07.577Z,150
2017-10-09T08:24:48.118Z,165
2017-10-09T08:25:28.642Z,175
2017-10-09T08:26:09.175Z,195
2017-10-09T08:26:49.699Z,210
2017-10-09T08:27:30.215Z,215
2017-10-09T08:28:10.739Z,220
2017-10-09T08:28:51.276Z,220
2017-10-09T08:29:31.773Z,220
2017-10-09T08:30:12.322Z,230
2017-10-09T08:30:52.860Z,240
2017-10-09T08:31:33.394Z,245
2017-10-09T08:32:13.941Z,245
2017-10-09T08:32:54.448Z,240
2017-10-09T08:33:34.986Z,230
2017-10-09T08:34:15.540Z,210
2017-10-09T08:34:56.067Z,185
2017-10-09T08:35:36.619Z,160
2017-10-09T08:36:17.142Z,135
2017-10-09T08:36:57.665Z,115
2017-10-09T08:37:38.216Z,105
2017-10-09T08:38:18.746Z,100
2017-10-09T08:38:59.283Z,95
2017-10-09T08:39:39.819Z,95
2017-10-09T08:40:20.356Z,105
2017-10-09T08:41:00.898Z,105
2017-10-09T08:41:41.428Z,110
2017-10-09T08:42:21.951Z,115
2017-10-09T08:43:02.479Z,125
2017-10-09T08:43:43.013Z,130
2017-10-09T08:44:23.536Z,120
2017-10-09T08:45:04.067Z,105
2017-10-09T08:45:44.588Z,90
2017-10-09T08:46:25.134Z,85
2017-10-09T08:47:05.660Z,75
2017-10-09T08:47:46.202Z,80
2017-10-09T08:48:26.721Z,80
2017-10-09T08:49:07.252Z,80
2017-10-09T08:49:47.784Z,80
2017-10-09T08:50:28.324Z,90
2017-10-09T08:51:08.870Z,90
2017-10-09T08:51:49.381Z,100
2017-10-09T08:52:29.911Z,105
2017-10-09T08:53:10.436Z,110
2017-10-09T08:53:50.977Z,110
2017-10-09T08:54:31.508Z,105
2017-10-09T08:55:12.007Z,105
2017-10-09T08:55:52.640Z,105
2017-10-09T08:56:33.182Z,100
2017-10-09T08:57:13.724Z,90
2017-10-09T08:57:54.286Z,80
2017-10-09T08:58:34.827Z,70
2017-10-09T08:59:15.351Z,65
2017-10-09T08:59:55.873Z,60
2017-10-09T09:00:36.392Z,65
2017-10-09T09:01:16.917Z,65
2017-10-09T09:01:57.442Z,65
2017-10-09T09:02:37.974Z,65
2017-10-09T09:03:18.493Z,60
2017-10-09T09:03:59.039Z,60
2017-10-09T09:04:39.567Z,65
2017-10-09T09:05:20.085Z,70
2017-10-09T09:06:00.619Z,60
2017-10-09T09:06:41.157Z,60
2017-10-09T09:07:21.677Z,65
2017-10-09T09:08:02.216Z,60
2017-10-09T09:08:42.737Z,60
2017-10-09T09:09:23.265Z,65
2017-10-09T09:10:03.804Z,75
2017-10-09T09:10:44.345Z,90
2017-10-09T09:11:24.905Z,100
2017-10-09T09:12:05.438Z,115
2017-10-09T09:12:45.965Z,125
2017-10-09T09:13:26.502Z,125
2017-10-09T09:14:07.030Z,125
2017-10-09T09:14:47.555Z,120
2017-10-09T09:15:28.115Z,110
2017-10-09T09:16:08.658Z,110
2017-10-09T09:16:49.184Z,120
2017-10-09T09:17:29.707Z,130
2017-10-09T09:18:10.233Z,135
2017-10-09T09:18:50.764Z,135
2017-10-09T09:19:31.280Z,135
2017-10-09T09:20:11.810Z,145
2017-10-09T09:20:52.346Z,150
2017-10-09T09:21:32.873Z,150
2017-10-09T09:22:13.398Z,150
2017-10-09T09:22:53.926Z,150
2017-10-09T09:23:34.454Z,140
2017-10-09T09:24:14.975Z,135
2017-10-09T09:24:55.501Z,115
2017-10-09T09:25:36.028Z,110
2017-10-09T09:26:16.544Z,120
2017-10-09T09:26:57.102Z,140
2017-10-09T09:27:37.628Z,155
2017-10-09T09:28:18.171Z,160
2017-10-09T09:28:58.713Z,170
2017-10-09T09:29:39.236Z,205
2017-10-09T09:30:19.774Z,260
2017-10-09T09:31:00.300Z,310
2017-10-09T09:31:40.831Z,350
2017-10-09T09:32:21.354Z,330
2017-10-09T09:33:01.883Z,290
2017-10-09T09:33:42.411Z,295
2017-10-09T09:34:22.931Z,305
2017-10-09T09:35:03.473Z,330
2017-10-09T09:35:44.008Z,360
2017-10-09T09:36:24.537Z,380
2017-10-09T09:37:05.096Z,395
2017-10-09T09:37:45.592Z,420
2017-10-09T09:38:26.121Z,395
2017-10-09T09:39:06.658Z,420
2017-10-09T09:39:47.250Z,575
2017-10-09T09:40:27.767Z,530
2017-10-09T09:41:08.297Z,510
2017-10-09T09:41:48.846Z,660
2017-10-09T09:42:29.349Z,450
2017-10-09T09:43:09.870Z,475
2017-10-09T09:43:50.413Z,490
2017-10-09T09:44:30.941Z,520
2017-10-09T09:45:11.476Z,555
2017-10-09T09:45:52.011Z,555
2017-10-09T09:46:32.548Z,600
2017-10-09T09:47:13.066Z,595
2017-10-09T09:47:53.597Z,455
2017-10-09T09:48:34.136Z,410
2017-10-09T09:49:14.677Z,385